Main page
METAR-TAF:

METAR-TAF

Airports :

Frankfurt, Germany

Frankfurt Airport

latitude: 50-03N, longitude: 008-36E, elevation: 111 m

Current weather observation

The report was made 38 minutes ago, at 07:20 UTC
Wind 14 kt from the Northeast
Temperature 9°C
Humidity 71%
Pressure 1025 hPa
Visibility 10 km or more
Overcast at a height of 2200 ft

METAR: EDDF 240720Z 05014KT 9999 OVC022 09/04 Q1025 NOSIG

Time: 08:58 (07:58 UTC)

Forecast

The report was made 2 hours and 58 minutes ago, at 05:00 UTC
Forecast valid from 24 at 06 UTC to 25 at 12 UTC
Wind 10 kt from the Northeast
Visibility 10 km or more
Broken clouds at a height of 2000 ft
Becoming
from 24 at 08 UTC to 24 at 12 UTC
Scattered clouds at a height of 2000 ft

TAF: EDDF 240500Z 2406/2512 04010KT 9999 BKN020 BECMG 2408/2412 SCT020

Weather observations and forecasts of more than 4000 airports (METAR and TAF reports).

The available stations are represented by yellow and red dots on the map.

Hover mouse over dot to see the name of the station.

Then click to see weather observations and forecasts.

To change the map : click on the green buttons with a black cross to zoom in, on the green button with a dash to zoom out, or on the green arrows for adjacent maps.


METAR-TAF: